createdAt,value
2023-02-11T00:02:13.356Z,94216.31
2023-02-11T00:05:17.043Z,94219.31
2023-02-11T00:08:19.964Z,94221.22
2023-02-11T00:11:26.027Z,94222.94
2023-02-11T00:14:29.702Z,94234.88
2023-02-11T00:17:34.143Z,94232.75
2023-02-11T00:20:40.498Z,94243.16
2023-02-11T00:23:43.763Z,94236.78
2023-02-11T00:26:47.748Z,94249.16
2023-02-11T00:29:51.277Z,94246.22
2023-02-11T00:32:54.785Z,94249.72
2023-02-11T00:35:58.522Z,94255.59
2023-02-11T00:39:02.259Z,94261.78
2023-02-11T00:42:05.923Z,94266.44
2023-02-11T00:45:10.358Z,94269.09
2023-02-11T00:48:14.345Z,94262.84
2023-02-11T00:51:17.379Z,94268.47
2023-02-11T00:54:20.720Z,94278.78
2023-02-11T00:57:23.773Z,94277.31
2023-02-11T01:00:27.306Z,94275.16
2023-02-11T01:03:30.451Z,94278.63
2023-02-11T01:06:34.071Z,94287.06
2023-02-11T01:09:40.607Z,94295.00
2023-02-11T01:12:44.531Z,94299.44
2023-02-11T01:15:48.349Z,94309.09
2023-02-11T01:18:53.512Z,94315.06
2023-02-11T01:21:57.185Z,94311.28
2023-02-11T01:25:01.895Z,94323.50
2023-02-11T01:28:05.907Z,94308.38
2023-02-11T01:31:10.312Z,94323.28
2023-02-11T01:34:14.188Z,94323.47
2023-02-11T01:37:17.822Z,94329.75
2023-02-11T01:40:20.987Z,94333.44
2023-02-11T01:43:26.462Z,94328.22
2023-02-11T01:46:32.194Z,94318.56
2023-02-11T01:49:40.749Z,94324.91
2023-02-11T01:52:46.862Z,94324.63
2023-02-11T01:56:11.877Z,94337.69
2023-02-11T01:59:21.136Z,94335.56
2023-02-11T02:02:34.956Z,94329.00
2023-02-11T02:06:01.467Z,94343.44
2023-02-11T02:09:17.258Z,94340.97
2023-02-11T02:12:21.302Z,94347.19
2023-02-11T02:15:33.125Z,94344.34
2023-02-11T02:19:12.170Z,94356.28
2023-02-11T02:22:43.103Z,94350.28
2023-02-11T02:26:23.986Z,94362.47
2023-02-11T02:29:42.649Z,94365.63
2023-02-11T02:33:23.330Z,94355.03
2023-02-11T02:36:42.417Z,94361.91
2023-02-11T02:39:49.914Z,94364.56
2023-02-11T02:42:53.714Z,94372.91
2023-02-11T02:46:11.203Z,94368.81
2023-02-11T02:49:17.687Z,94374.09
2023-02-11T02:52:30.174Z,94376.31
2023-02-11T02:55:46.041Z,94381.06
2023-02-11T02:59:03.298Z,94385.19
2023-02-11T03:02:22.726Z,94384.00
2023-02-11T03:05:59.061Z,94384.97
2023-02-11T03:09:16.995Z,94397.38
2023-02-11T03:12:22.561Z,94395.66
2023-02-11T03:15:29.961Z,94392.66
2023-02-11T03:18:36.592Z,94394.75
2023-02-11T03:21:41.196Z,94397.63
2023-02-11T03:24:45.645Z,94394.72
2023-02-11T03:28:12.763Z,94392.69
2023-02-11T03:31:48.666Z,94394.59
2023-02-11T03:34:57.219Z,94396.56
2023-02-11T03:38:20.271Z,94385.56
2023-02-11T03:41:25.446Z,94395.94
2023-02-11T03:44:34.265Z,94396.13
2023-02-11T03:47:40.672Z,94391.06
2023-02-11T03:50:46.517Z,94382.81
2023-02-11T03:53:54.057Z,94389.56
2023-02-11T03:56:59.405Z,94391.16
2023-02-11T04:00:03.596Z,94391.19
2023-02-11T04:03:14.723Z,94387.97
2023-02-11T04:06:17.975Z,94382.97
2023-02-11T04:09:20.891Z,94389.38
2023-02-11T04:12:25.158Z,94392.13
2023-02-11T04:15:28.708Z,94385.72
2023-02-11T04:18:32.657Z,94388.66
2023-02-11T04:21:36.279Z,94394.69
2023-02-11T04:24:40.606Z,94387.91
2023-02-11T04:27:43.494Z,94385.22
2023-02-11T04:30:46.588Z,94383.34
2023-02-11T04:33:49.517Z,94385.41
2023-02-11T04:36:52.548Z,94383.56
2023-02-11T04:39:55.386Z,94385.41
2023-02-11T04:42:59.290Z,94383.22
2023-02-11T04:46:02.920Z,94380.72
2023-02-11T04:49:06.400Z,94380.94
2023-02-11T04:52:10.154Z,94382.09
2023-02-11T04:55:14.782Z,94378.03
2023-02-11T04:58:18.780Z,94389.84
2023-02-11T05:01:22.122Z,94386.94
2023-02-11T05:04:25.798Z,94397.16
2023-02-11T05:07:29.210Z,94389.19
2023-02-11T05:10:32.236Z,94385.13
2023-02-11T05:13:35.813Z,94388.69
2023-02-11T05:16:39.262Z,94381.63
2023-02-11T05:19:43.676Z,94379.78
2023-02-11T05:22:46.590Z,94390.16
2023-02-11T05:25:50.212Z,94387.97
2023-02-11T05:28:53.272Z,94392.28
2023-02-11T05:31:56.936Z,94392.16
2023-02-11T05:35:00.266Z,94382.03
2023-02-11T05:38:04.114Z,94378.03
2023-02-11T05:41:07.822Z,94378.38
2023-02-11T05:44:11.131Z,94381.41
2023-02-11T05:47:14.041Z,94385.53
2023-02-11T05:50:18.554Z,94385.84
2023-02-11T05:53:22.983Z,94387.44
2023-02-11T05:56:26.195Z,94386.78
2023-02-11T05:59:29.876Z,94389.59
2023-02-11T06:02:33.720Z,94378.22
2023-02-11T06:05:37.496Z,94376.00
2023-02-11T06:08:41.246Z,94381.75
2023-02-11T06:11:45.196Z,94375.25
2023-02-11T06:14:48.762Z,94378.81
2023-02-11T06:17:51.992Z,94380.84
2023-02-11T06:20:56.325Z,94387.91
2023-02-11T06:23:59.992Z,94387.03
2023-02-11T06:27:04.711Z,94385.91
2023-02-11T06:30:08.717Z,94388.53
2023-02-11T06:33:12.704Z,94385.59
2023-02-11T06:36:19.582Z,94390.75
2023-02-11T06:39:23.292Z,94388.47
2023-02-11T06:42:27.041Z,94386.25
2023-02-11T06:45:30.666Z,94385.63
2023-02-11T06:48:34.161Z,94378.59
2023-02-11T06:51:37.931Z,94375.19
2023-02-11T06:54:41.194Z,94376.69
2023-02-11T06:57:44.815Z,94382.91
2023-02-11T07:00:48.868Z,94392.25
2023-02-11T07:03:52.947Z,94380.91
2023-02-11T07:06:56.948Z,94380.78
2023-02-11T07:10:00.679Z,94390.13
2023-02-11T07:13:04.263Z,94396.19
2023-02-11T07:16:13.191Z,94403.84
2023-02-11T07:19:16.550Z,94395.13
2023-02-11T07:22:19.377Z,94394.06
2023-02-11T07:25:22.314Z,94395.66
2023-02-11T07:28:25.628Z,94398.19
2023-02-11T07:31:30.393Z,94402.56
2023-02-11T07:34:34.475Z,94406.47
2023-02-11T07:37:38.528Z,94406.94
2023-02-11T07:40:43.441Z,94411.78
2023-02-11T07:43:47.537Z,94408.72
2023-02-11T07:46:51.313Z,94422.84
2023-02-11T07:49:56.627Z,94418.28
2023-02-11T07:53:00.492Z,94428.00
2023-02-11T07:56:04.974Z,94421.47
2023-02-11T07:59:08.606Z,94422.09
2023-02-11T08:02:11.537Z,94426.94
2023-02-11T08:05:15.136Z,94426.22
2023-02-11T08:08:18.820Z,94429.78
2023-02-11T08:11:28.970Z,94435.56
2023-02-11T08:14:33.363Z,94440.81
2023-02-11T08:17:37.673Z,94447.59
2023-02-11T08:20:41.401Z,94451.56
2023-02-11T08:23:46.272Z,94461.22
2023-02-11T08:26:49.948Z,94459.34
2023-02-11T08:29:57.619Z,94465.31
2023-02-11T08:33:01.164Z,94469.81
2023-02-11T08:36:09.964Z,94473.81
2023-02-11T08:39:19.782Z,94467.53
2023-02-11T08:42:23.661Z,94470.28
2023-02-11T08:45:26.972Z,94481.69
2023-02-11T08:48:30.937Z,94482.66
2023-02-11T08:51:34.711Z,94488.03
2023-02-11T08:54:38.343Z,94484.53
2023-02-11T08:57:41.145Z,94486.75
2023-02-11T09:00:46.173Z,94496.94
2023-02-11T09:03:49.396Z,94498.13
2023-02-11T09:06:53.659Z,94499.22
2023-02-11T09:09:57.273Z,94502.66
2023-02-11T09:13:00.301Z,94511.69
2023-02-11T09:16:05.726Z,94496.28
2023-02-11T09:19:10.516Z,94514.06
2023-02-11T09:22:14.626Z,94513.63
2023-02-11T09:25:17.674Z,94511.72
2023-02-11T09:28:20.520Z,94524.78
2023-02-11T09:31:27.492Z,94525.63
2023-02-11T09:34:31.174Z,94527.44
2023-02-11T09:37:37.177Z,94528.00
2023-02-11T09:40:47.066Z,94536.91
2023-02-11T09:43:54.462Z,94544.75
2023-02-11T09:47:02.413Z,94547.56
2023-02-11T09:50:13.820Z,94561.16
2023-02-11T09:53:29.170Z,94557.88
2023-02-11T09:56:32.374Z,94561.59
2023-02-11T09:59:35.899Z,94567.22
2023-02-11T10:03:00.467Z,94575.34
2023-02-11T10:06:30.052Z,94584.78
2023-02-11T10:09:41.352Z,94587.91
2023-02-11T10:12:53.794Z,94590.84
2023-02-11T10:16:00.196Z,94590.53
2023-02-11T10:19:39.152Z,94582.22
2023-02-11T10:22:49.921Z,94595.41
2023-02-11T10:25:57.245Z,94600.44
2023-02-11T10:29:06.644Z,94603.38
2023-02-11T10:32:46.533Z,94607.47
2023-02-11T10:35:50.145Z,94605.22
2023-02-11T10:38:54.054Z,94611.16
2023-02-11T10:42:03.391Z,94602.44
2023-02-11T10:45:07.915Z,94608.63
2023-02-11T10:48:40.238Z,94604.47
2023-02-11T10:51:43.887Z,94611.84
2023-02-11T10:54:58.583Z,94618.88
2023-02-11T10:58:03.871Z,94625.97
2023-02-11T11:01:23.198Z,94634.94
2023-02-11T11:04:31.302Z,94634.00
2023-02-11T11:07:35.734Z,94635.47
2023-02-11T11:10:44.874Z,94636.06
2023-02-11T11:13:53.694Z,94643.28
2023-02-11T11:16:58.000Z,94642.25
2023-02-11T11:20:25.388Z,94639.78
2023-02-11T11:23:31.600Z,94637.41
2023-02-11T11:27:03.281Z,94644.53
2023-02-11T11:30:07.157Z,94649.34
2023-02-11T11:33:32.853Z,94652.88
2023-02-11T11:36:40.776Z,94647.22
2023-02-11T11:39:57.430Z,94652.88
2023-02-11T11:43:15.746Z,94660.31
2023-02-11T11:46:25.540Z,94670.94
2023-02-11T11:49:38.635Z,94674.31
2023-02-11T11:53:00.753Z,94677.09
2023-02-11T11:56:12.734Z,94681.72
2023-02-11T11:59:17.651Z,94694.13
2023-02-11T12:02:39.198Z,94695.50
2023-02-11T12:06:20.525Z,94704.47
2023-02-11T12:09:42.297Z,94692.81
2023-02-11T12:13:12.296Z,94689.16
2023-02-11T12:16:36.485Z,94693.63
2023-02-11T12:20:24.585Z,94701.16
2023-02-11T12:24:03.901Z,94699.75
2023-02-11T12:27:17.215Z,94699.47
2023-02-11T12:30:28.092Z,94706.19
2023-02-11T12:33:51.890Z,94715.88
2023-02-11T12:37:08.104Z,94719.94
2023-02-11T12:40:29.122Z,94726.47
2023-02-11T12:43:38.792Z,94727.59
2023-02-11T12:47:10.557Z,94733.28
2023-02-11T12:50:38.511Z,94740.25
2023-02-11T12:54:20.878Z,94733.63
2023-02-11T12:57:28.383Z,94752.56
2023-02-11T13:00:48.882Z,94742.78
2023-02-11T13:04:19.238Z,94753.63
2023-02-11T13:07:31.785Z,94761.28
2023-02-11T13:10:40.821Z,94753.09
2023-02-11T13:13:50.751Z,94759.31
2023-02-11T13:16:56.457Z,94754.03
2023-02-11T13:20:08.522Z,94755.78
2023-02-11T13:23:32.517Z,94764.25
2023-02-11T13:27:06.127Z,94753.28
2023-02-11T13:30:34.115Z,94762.91
2023-02-11T13:33:45.403Z,94772.44
2023-02-11T13:36:56.557Z,94775.78
2023-02-11T13:40:20.298Z,94786.09
2023-02-11T13:43:26.208Z,94789.78
2023-02-11T13:46:49.377Z,94793.88
2023-02-11T13:49:54.981Z,94795.63
2023-02-11T13:53:02.327Z,94794.44
2023-02-11T13:56:23.756Z,94801.41
2023-02-11T13:59:27.489Z,94807.28
2023-02-11T14:02:54.078Z,94813.34
2023-02-11T14:06:28.039Z,94820.41
2023-02-11T14:09:38.206Z,94822.31
2023-02-11T14:12:41.924Z,94823.22
2023-02-11T14:15:47.639Z,94828.63
2023-02-11T14:18:52.434Z,94838.03
2023-02-11T14:22:20.680Z,94839.72
2023-02-11T14:25:26.392Z,94840.09
2023-02-11T14:28:34.792Z,94852.81
2023-02-11T14:31:40.557Z,94848.53
2023-02-11T14:34:49.262Z,94844.69
2023-02-11T14:37:53.187Z,94856.94
2023-02-11T14:41:02.657Z,94854.66
2023-02-11T14:44:20.581Z,94865.41
2023-02-11T14:47:36.147Z,94862.72
2023-02-11T14:50:49.730Z,94870.22
2023-02-11T14:54:01.526Z,94869.00
2023-02-11T14:57:14.850Z,94872.25
2023-02-11T15:00:23.225Z,94881.53
2023-02-11T15:03:34.330Z,94887.28
2023-02-11T15:06:41.191Z,94883.59
2023-02-11T15:09:54.858Z,94886.66
2023-02-11T15:13:00.743Z,94889.44
2023-02-11T15:16:10.462Z,94893.50
2023-02-11T15:19:25.686Z,94885.72
2023-02-11T15:22:34.092Z,94886.19
2023-02-11T15:25:45.496Z,94905.03
2023-02-11T15:28:53.187Z,94908.03
2023-02-11T15:32:16.699Z,94913.84
2023-02-11T15:35:20.565Z,94914.03
2023-02-11T15:38:24.759Z,94920.94
2023-02-11T15:41:38.263Z,94921.16
2023-02-11T15:44:42.268Z,94929.72
2023-02-11T15:47:54.393Z,94929.72
2023-02-11T15:51:06.240Z,94931.22
2023-02-11T15:54:20.281Z,94928.97
2023-02-11T15:57:24.389Z,94931.53
2023-02-11T16:00:37.703Z,94938.56
2023-02-11T16:03:43.949Z,94939.53
2023-02-11T16:06:51.406Z,94947.31
2023-02-11T16:09:59.486Z,94948.13
2023-02-11T16:13:09.192Z,94960.63
2023-02-11T16:16:23.855Z,94956.63
2023-02-11T16:19:29.189Z,94954.88
2023-02-11T16:22:39.074Z,94962.31
2023-02-11T16:25:44.150Z,94971.38
2023-02-11T16:28:48.380Z,94970.16
2023-02-11T16:31:54.017Z,94970.94
2023-02-11T16:35:00.337Z,94981.69
2023-02-11T16:38:04.089Z,94979.19
2023-02-11T16:41:08.201Z,94979.44
2023-02-11T16:44:11.239Z,94986.50
2023-02-11T16:47:35.649Z,94984.28
2023-02-11T16:50:38.813Z,94979.75
2023-02-11T16:53:42.166Z,94984.75
2023-02-11T16:56:46.212Z,94983.25
2023-02-11T16:59:50.956Z,94985.75
2023-02-11T17:02:54.651Z,94987.22
2023-02-11T17:05:58.586Z,94993.03
2023-02-11T17:09:01.924Z,94993.06
2023-02-11T17:12:06.090Z,94989.34
2023-02-11T17:15:10.806Z,95007.31
2023-02-11T17:18:15.479Z,95004.31
2023-02-11T17:21:18.604Z,95005.06
2023-02-11T17:24:22.977Z,95006.84
2023-02-11T17:27:26.066Z,95017.06
2023-02-11T17:30:30.116Z,95016.78
2023-02-11T17:33:35.208Z,95021.03
2023-02-11T17:36:42.259Z,95018.00
2023-02-11T17:39:45.497Z,95016.75
2023-02-11T17:42:48.744Z,95027.44
2023-02-11T17:45:52.456Z,95033.31
2023-02-11T17:48:56.449Z,95038.28
2023-02-11T17:51:59.645Z,95042.19
2023-02-11T17:55:03.746Z,95039.41
2023-02-11T17:58:07.340Z,95044.09
2023-02-11T18:01:11.232Z,95050.78
2023-02-11T18:04:18.037Z,95060.69
2023-02-11T18:07:21.860Z,95048.50
2023-02-11T18:10:25.081Z,95043.66
2023-02-11T18:13:28.925Z,95043.66
2023-02-11T18:16:35.320Z,95055.00
2023-02-11T18:19:39.472Z,95053.97
2023-02-11T18:22:45.029Z,95055.72
2023-02-11T18:25:48.780Z,95057.22
2023-02-11T18:28:53.230Z,95056.91
2023-02-11T18:31:57.986Z,95061.53
2023-02-11T18:35:01.451Z,95062.84
2023-02-11T18:38:04.660Z,95063.63
2023-02-11T18:41:08.955Z,95060.94
2023-02-11T18:44:15.068Z,95070.94
2023-02-11T18:47:19.974Z,95069.00
2023-02-11T18:50:23.722Z,95063.59
2023-02-11T18:53:26.690Z,95059.59
2023-02-11T18:56:29.949Z,95077.56
2023-02-11T18:59:33.519Z,95074.13
2023-02-11T19:02:38.516Z,95066.66
2023-02-11T19:05:46.843Z,95062.66
2023-02-11T19:08:50.707Z,95065.94
2023-02-11T19:11:54.803Z,95062.69
2023-02-11T19:15:01.300Z,95057.19
2023-02-11T19:18:05.135Z,95062.94
2023-02-11T19:21:11.369Z,95062.94
2023-02-11T19:24:16.729Z,95063.47
2023-02-11T19:27:20.745Z,95066.19
2023-02-11T19:30:23.782Z,95062.44
2023-02-11T19:33:27.113Z,95057.94
2023-02-11T19:36:30.108Z,95064.09
2023-02-11T19:39:33.547Z,95059.56
2023-02-11T19:42:36.467Z,95059.28
2023-02-11T19:45:40.138Z,95059.81
2023-02-11T19:48:43.319Z,95045.31
2023-02-11T19:51:47.046Z,95055.28
2023-02-11T19:54:51.264Z,95054.34
2023-02-11T19:57:54.120Z,95049.69
2023-02-11T20:01:24.723Z,95056.56
2023-02-11T20:04:27.737Z,95054.75
2023-02-11T20:07:31.426Z,95049.75
2023-02-11T20:10:35.564Z,95053.31
2023-02-11T20:13:39.393Z,95043.56
2023-02-11T20:16:49.163Z,95045.38
2023-02-11T20:19:53.730Z,95048.38
2023-02-11T20:22:57.033Z,95052.56
2023-02-11T20:25:59.877Z,95048.16
2023-02-11T20:29:03.644Z,95050.25
2023-02-11T20:32:07.778Z,95054.34
2023-02-11T20:35:11.690Z,95053.78
2023-02-11T20:38:14.468Z,95049.56
2023-02-11T20:41:40.215Z,95053.34
2023-02-11T20:44:43.148Z,95053.34
2023-02-11T20:47:45.996Z,95055.09
2023-02-11T20:50:50.167Z,95054.84
2023-02-11T20:53:54.361Z,95061.56
2023-02-11T20:56:58.860Z,95066.81
2023-02-11T21:00:01.806Z,95065.81
2023-02-11T21:03:05.833Z,95070.25
2023-02-11T21:06:08.856Z,95068.69
2023-02-11T21:09:15.435Z,95079.66
2023-02-11T21:12:18.769Z,95074.38
2023-02-11T21:15:24.382Z,95080.34
2023-02-11T21:18:28.348Z,95083.94
2023-02-11T21:21:31.716Z,95083.91
2023-02-11T21:24:35.002Z,95084.16
2023-02-11T21:27:38.164Z,95080.47
2023-02-11T21:30:42.761Z,95080.78
2023-02-11T21:33:45.642Z,95085.44
2023-02-11T21:36:51.572Z,95086.72
2023-02-11T21:39:54.849Z,95079.97
2023-02-11T21:42:58.644Z,95074.03
2023-02-11T21:46:07.172Z,95073.00
2023-02-11T21:49:11.158Z,95068.16
2023-02-11T21:52:14.097Z,95063.53
2023-02-11T21:55:17.222Z,95054.88
2023-02-11T21:58:20.816Z,95063.88
2023-02-11T22:01:27.862Z,95062.91
2023-02-11T22:04:31.939Z,95072.66
2023-02-11T22:07:38.664Z,95077.94
2023-02-11T22:10:41.592Z,95083.09
2023-02-11T22:13:45.509Z,95080.84
2023-02-11T22:16:49.268Z,95087.34
2023-02-11T22:19:52.242Z,95089.81
2023-02-11T22:22:55.752Z,95088.75
2023-02-11T22:26:04.934Z,95095.25
2023-02-11T22:29:07.914Z,95103.28
2023-02-11T22:32:11.692Z,95090.13
2023-02-11T22:35:15.466Z,95095.28
2023-02-11T22:38:18.255Z,95089.06
2023-02-11T22:41:23.031Z,95088.50
2023-02-11T22:44:26.883Z,95103.31
2023-02-11T22:47:29.747Z,95101.88
2023-02-11T22:50:33.711Z,95096.03
2023-02-11T22:53:37.048Z,95099.09
2023-02-11T22:56:40.976Z,95110.56
2023-02-11T22:59:44.001Z,95112.78
2023-02-11T23:02:48.154Z,95115.53
2023-02-11T23:05:51.753Z,95116.28
2023-02-11T23:08:56.096Z,95114.09
2023-02-11T23:11:59.427Z,95118.84
2023-02-11T23:15:05.115Z,95132.28
2023-02-11T23:18:09.449Z,95123.56
2023-02-11T23:21:17.119Z,95136.53
2023-02-11T23:24:20.837Z,95145.19
2023-02-11T23:27:24.858Z,95147.38
2023-02-11T23:30:29.051Z,95148.00
2023-02-11T23:33:32.348Z,95145.41
2023-02-11T23:36:35.385Z,95153.44
2023-02-11T23:39:39.393Z,95169.09
2023-02-11T23:42:42.867Z,95157.84
2023-02-11T23:45:46.050Z,95159.56
2023-02-11T23:48:51.930Z,95178.06
2023-02-11T23:51:55.353Z,95174.72
2023-02-11T23:54:59.057Z,95175.81
2023-02-11T23:58:02.994Z,95178.19
